Time;durP1;ratioP1;P1;durP2;ratioP2;P2;SDS_P1;SDS_P2;PMS_P1;PMS_P2;Temp;Humidity;BMP_temperature;BMP_pressure;BME280_temperature;BME280_humidity;BME280_pressure;Samples;Min_cycle;Max_cycle;Signal;HPM_P1;HPM_P2
2022/04/07 00:02:05;;;;;;;8.57;5.13;;;8.80;99.90;;;7.12;76.36;98702.19;10332370;28;97019;-78
2022/04/07 00:07:09;;;;;;;11.13;5.73;;;8.90;99.90;;;7.17;75.97;98705.09;10351215;28;96618;-78
2022/04/07 00:12:12;;;;;;;9.80;5.67;;;9.00;99.90;;;7.24;75.78;98699.91;10342357;28;96468;-78
2022/04/07 00:17:15;;;;;;;9.63;6.57;;;9.00;99.90;;;7.22;75.63;98683.44;10353605;28;96483;-78
2022/04/07 00:22:18;;;;;;;8.40;5.70;;;9.00;99.90;;;7.15;75.80;98675.41;10327125;28;96495;-78
2022/04/07 00:27:21;;;;;;;8.33;4.97;;;9.00;99.90;;;7.11;76.30;98668.84;10308600;28;96500;-78
2022/04/07 00:32:24;;;;;;;11.90;6.20;;;8.90;99.90;;;7.06;76.17;98671.22;10368979;28;96629;-78
2022/04/07 00:37:28;;;;;;;9.43;5.60;;;8.90;99.90;;;7.04;76.04;98670.59;10333415;28;96679;-78
2022/04/07 00:42:33;;;;;;;8.90;5.90;;;8.90;99.90;;;7.03;76.13;98658.38;10372971;28;96535;-78
2022/04/07 00:47:36;;;;;;;11.17;6.23;;;8.80;99.90;;;6.99;76.22;98633.34;10334546;28;96955;-78
2022/04/07 00:52:47;;;;;;;10.00;6.33;;;8.80;99.90;;;6.96;76.19;98636.34;10322347;28;96597;-78
2022/04/07 00:57:51;;;;;;;9.13;5.70;;;8.80;99.90;;;6.94;75.91;98631.22;10348823;28;96478;-78
2022/04/07 01:02:54;;;;;;;8.83;5.67;;;8.80;99.90;;;6.93;76.03;98631.41;10369401;28;97059;-78
2022/04/07 01:07:57;;;;;;;7.97;5.10;;;8.80;99.90;;;6.89;76.07;98624.84;10324751;28;96682;-78
2022/04/07 01:13:01;;;;;;;7.73;4.90;;;8.70;99.90;;;6.87;75.97;98618.94;10368313;28;96727;-78
2022/04/07 01:18:05;;;;;;;7.20;4.40;;;8.70;99.90;;;6.86;76.12;98619.97;10373698;28;96681;-78
2022/04/07 01:23:09;;;;;;;5.90;3.50;;;8.70;99.90;;;6.88;75.87;98620.59;10339970;28;96545;-78
2022/04/07 01:28:11;;;;;;;6.73;2.90;;;8.70;99.90;;;6.91;75.60;98612.31;10337890;28;96507;-78
2022/04/07 01:33:14;;;;;;;4.83;3.17;;;8.70;99.90;;;6.94;75.06;98614.56;10355282;28;96613;-78
2022/04/07 01:38:19;;;;;;;4.67;2.70;;;8.70;99.90;;;6.97;74.98;98607.13;10340457;28;98525;-78
2022/04/07 01:43:23;;;;;;;8.20;2.53;;;8.80;99.90;;;6.94;75.04;98596.09;10324520;28;96442;-78
2022/04/07 01:48:26;;;;;;;4.10;2.70;;;8.80;99.90;;;6.88;74.98;98594.19;10348037;28;98347;-78
2022/04/07 01:53:29;;;;;;;6.33;2.80;;;8.70;99.90;;;6.77;75.30;98592.00;10329303;28;96449;-78
2022/04/07 01:58:33;;;;;;;5.03;2.60;;;8.70;99.90;;;6.65;74.99;98589.81;10311804;28;96706;-78
2022/04/07 02:03:35;;;;;;;4.83;2.50;;;8.50;99.90;;;6.59;75.76;98585.25;10341294;28;97814;-78
2022/04/07 02:08:39;;;;;;;6.10;2.40;;;8.50;99.90;;;6.54;76.08;98578.91;10341180;28;96501;-78
2022/04/07 02:13:42;;;;;;;6.07;3.23;;;8.40;99.90;;;6.53;76.51;98585.97;10345741;28;96510;-78
2022/04/07 02:18:46;;;;;;;4.03;2.40;;;8.40;99.90;;;6.53;76.29;98570.16;10345835;28;96554;-79
2022/04/07 02:23:51;;;;;;;7.47;2.83;;;8.30;99.90;;;6.52;76.40;98555.31;10332748;28;96593;-78
2022/04/07 02:28:54;;;;;;;4.43;2.60;;;8.30;99.90;;;6.50;76.80;98559.16;10357645;28;96548;-78
2022/04/07 02:33:57;;;;;;;5.77;2.70;;;8.30;99.90;;;6.47;76.81;98548.94;10387148;28;96725;-78
2022/04/07 02:39:00;;;;;;;4.97;3.23;;;8.30;99.90;;;6.46;77.03;98540.22;10339523;28;97522;-79
2022/04/07 02:44:07;;;;;;;4.73;3.37;;;8.30;99.90;;;6.48;77.58;98538.22;10368396;28;96411;-79
2022/04/07 02:49:10;;;;;;;6.23;3.33;;;8.30;99.90;;;6.55;76.86;98531.22;10343745;28;96848;-79
2022/04/07 02:54:13;;;;;;;5.40;3.00;;;8.30;99.90;;;6.59;76.34;98514.00;10296974;28;96636;-79
2022/04/07 02:59:16;;;;;;;7.27;3.47;;;8.40;99.90;;;6.59;76.20;98510.53;10335218;28;96510;-79
2022/04/07 03:04:19;;;;;;;9.67;5.03;;;8.30;99.90;;;6.56;76.43;98495.09;10356364;28;96571;-79
2022/04/07 03:09:22;;;;;;;14.20;7.47;;;8.40;99.90;;;6.54;76.92;98487.34;10377779;28;96600;-79
2022/04/07 03:14:27;;;;;;;9.33;5.77;;;8.30;99.90;;;6.56;76.81;98492.44;10376122;28;97288;-79
2022/04/07 03:19:30;;;;;;;7.53;4.67;;;8.40;99.90;;;6.65;76.47;98489.50;10352640;28;96686;-79
2022/04/07 03:24:33;;;;;;;8.90;4.50;;;8.40;99.90;;;6.70;76.16;98487.13;10337056;28;96573;-79
2022/04/07 03:29:40;;;;;;;6.37;4.50;;;8.40;99.90;;;6.77;75.88;98495.13;10343795;28;96558;-79
2022/04/07 03:34:43;;;;;;;7.30;4.70;;;8.50;99.90;;;6.83;76.00;98488.28;10341783;28;96490;-79
2022/04/07 03:39:46;;;;;;;6.83;4.60;;;8.60;99.90;;;6.91;75.83;98477.63;10313624;28;96593;-79
2022/04/07 03:44:49;;;;;;;11.53;6.83;;;8.60;99.90;;;6.93;75.74;98473.78;10329310;28;96565;-79
2022/04/07 03:49:52;;;;;;;12.20;6.63;;;8.60;99.90;;;6.94;75.69;98461.41;10354299;28;98152;-79
2022/04/07 03:54:55;;;;;;;8.80;5.73;;;8.70;99.90;;;6.91;75.81;98451.25;10319781;28;96456;-79
2022/04/07 03:59:58;;;;;;;12.13;4.97;;;8.70;99.90;;;6.85;76.02;98441.41;10338058;28;96646;-78
2022/04/07 04:05:01;;;;;;;9.27;5.87;;;8.60;99.90;;;6.79;76.25;98436.88;10329065;28;96694;-79
2022/04/07 04:10:04;;;;;;;7.37;4.67;;;8.60;99.90;;;6.83;76.36;98440.78;10302496;28;96939;-79
2022/04/07 04:15:08;;;;;;;6.73;4.60;;;8.60;99.90;;;6.89;76.16;98443.47;10342556;28;96688;-79
2022/04/07 04:20:11;;;;;;;8.13;4.70;;;8.60;99.90;;;6.91;76.30;98428.28;10364752;28;96593;-79
2022/04/07 04:25:15;;;;;;;6.00;4.37;;;8.60;99.90;;;6.88;76.34;98423.38;10321934;28;96473;-79
2022/04/07 04:30:18;;;;;;;7.40;4.60;;;8.60;99.90;;;6.87;76.50;98418.28;10317753;28;96495;-78
2022/04/07 04:35:21;;;;;;;10.00;5.97;;;8.60;99.90;;;6.85;76.88;98428.22;10328746;28;96775;-79
2022/04/07 04:40:24;;;;;;;13.13;5.23;;;8.60;99.90;;;6.88;77.03;98433.09;10303911;28;96537;-79
2022/04/07 04:45:26;;;;;;;8.90;4.80;;;8.60;99.90;;;6.88;77.22;98426.00;10300901;28;96848;-78
2022/04/07 04:50:29;;;;;;;9.97;5.63;;;8.60;99.90;;;6.94;77.26;98429.72;10294452;28;96528;-78
2022/04/07 04:55:32;;;;;;;8.13;5.20;;;8.70;99.90;;;7.08;76.98;98433.34;10344901;28;96636;-79
2022/04/07 05:00:35;;;;;;;11.80;5.27;;;8.80;99.90;;;7.19;77.15;98428.34;10350851;28;97224;-79
2022/04/07 05:05:38;;;;;;;7.80;4.97;;;8.90;99.90;;;7.30;77.03;98431.47;10321658;28;96541;-78
2022/04/07 05:10:41;;;;;;;13.40;4.83;;;9.00;99.90;;;7.36;77.50;98426.25;10367542;28;96573;-79
2022/04/07 05:15:44;;;;;;;10.00;5.57;;;9.00;99.90;;;7.42;77.19;98422.03;10380815;28;98286;-78
2022/04/07 05:20:47;;;;;;;10.30;5.93;;;9.10;99.90;;;7.47;76.91;98424.94;10352427;28;96524;-78
2022/04/07 05:25:50;;;;;;;9.83;4.50;;;9.20;99.90;;;7.49;76.92;98444.03;10376053;28;96571;-78
2022/04/07 05:30:53;;;;;;;6.77;4.57;;;9.20;99.90;;;7.51;76.68;98439.41;10339062;28;98462;-79
2022/04/07 05:35:56;;;;;;;30.50;13.73;;;9.20;99.90;;;7.58;76.87;98442.09;10354627;28;98402;-78
2022/04/07 05:40:58;;;;;;;57.43;26.47;;;9.20;99.90;;;7.71;76.88;98432.44;10347719;28;96971;-79
2022/04/07 05:46:02;;;;;;;31.47;16.40;;;9.40;99.90;;;7.87;77.21;98428.69;10327425;28;96645;-79
2022/04/07 05:51:05;;;;;;;19.13;10.23;;;9.50;99.90;;;8.03;77.11;98438.13;10315620;28;96463;-78
2022/04/07 05:56:08;;;;;;;13.07;6.97;;;9.60;99.90;;;8.16;76.92;98438.22;10340579;28;96530;-79
2022/04/07 06:01:12;;;;;;;15.90;8.17;;;9.80;99.90;;;8.31;76.86;98444.19;10355251;28;96421;-78
2022/04/07 06:06:15;;;;;;;20.00;9.93;;;9.90;99.90;;;8.53;76.89;98436.19;10369482;28;97385;-78
2022/04/07 06:11:18;;;;;;;16.33;9.83;;;10.10;99.90;;;8.77;76.68;98440.97;10343929;28;96527;-79
2022/04/07 06:16:21;;;;;;;20.63;9.93;;;10.30;99.90;;;9.02;76.38;98440.41;10341442;28;96829;-78
2022/04/07 06:21:24;;;;;;;18.77;10.17;;;10.60;99.90;;;9.24;75.85;98444.53;10348007;28;96528;-79
2022/04/07 06:26:28;;;;;;;23.33;13.00;;;10.80;99.90;;;9.43;75.01;98444.75;10337869;28;96678;-78
2022/04/07 06:31:31;;;;;;;26.90;14.00;;;10.90;99.90;;;9.55;74.55;98451.91;10340073;28;96822;-78
2022/04/07 06:36:39;;;;;;;22.30;11.20;;;11.10;99.90;;;9.65;73.80;98468.22;10391562;28;96524;-78
2022/04/07 06:41:42;;;;;;;18.93;13.17;;;11.20;99.90;;;9.77;73.42;98473.72;10333877;28;96626;-79
2022/04/07 06:46:46;;;;;;;20.30;11.80;;;11.30;99.90;;;9.96;73.02;98481.91;10343580;28;97072;-78
2022/04/07 06:51:48;;;;;;;19.80;9.80;;;11.50;99.90;;;10.13;73.36;98481.22;10338307;28;96592;-78
2022/04/07 06:56:52;;;;;;;19.30;10.63;;;11.70;99.90;;;10.30;73.12;98497.56;10321569;28;96467;-78
2022/04/07 07:01:55;;;;;;;17.37;8.90;;;11.90;99.90;;;10.52;73.58;98492.84;10321386;28;96574;-78
2022/04/07 07:06:59;;;;;;;10.50;6.43;;;12.00;99.90;;;10.78;72.39;98494.56;10344827;28;96650;-77
2022/04/07 07:12:02;;;;;;;16.00;8.57;;;12.30;99.90;;;11.04;69.78;98504.28;10370003;28;96549;-78
2022/04/07 07:17:06;;;;;;;18.07;9.60;;;12.50;99.90;;;11.13;68.71;98504.84;10334509;28;96519;-78
2022/04/07 07:22:11;;;;;;;15.13;7.90;;;12.70;99.90;;;11.21;68.43;98508.06;10352904;28;97969;-78
2022/04/07 07:27:15;;;;;;;14.77;7.83;;;12.70;99.90;;;11.34;68.82;98507.19;10320265;28;96528;-78
2022/04/07 07:32:18;;;;;;;20.63;7.47;;;12.90;99.90;;;11.42;68.10;98508.78;10354436;28;96971;-77
2022/04/07 07:37:21;;;;;;;15.87;6.17;;;13.00;99.90;;;11.39;68.93;98509.19;10337652;28;96469;-77
2022/04/07 07:42:24;;;;;;;12.90;6.93;;;12.90;99.90;;;11.43;68.50;98503.22;10352364;28;96440;-78
2022/04/07 07:47:27;;;;;;;10.17;6.30;;;13.00;99.90;;;11.47;68.14;98508.94;10348659;28;96551;-79
2022/04/07 07:52:30;;;;;;;12.90;6.03;;;13.00;99.50;;;11.51;66.27;98518.97;10330448;28;96647;-80
2022/04/07 07:57:40;;;;;;;8.53;5.47;;;13.10;99.00;;;11.62;65.46;98516.63;10296950;28;96599;-79
2022/04/07 08:02:44;;;;;;;9.07;4.70;;;13.20;98.20;;;11.77;65.56;98517.13;10287495;28;96627;-79
2022/04/07 08:07:47;;;;;;;8.10;5.30;;;13.30;97.70;;;11.97;65.47;98524.97;10327250;28;96579;-77
2022/04/07 08:12:50;;;;;;;7.40;5.00;;;13.50;97.50;;;12.16;64.49;98521.31;10332082;28;96534;-78
2022/04/07 08:17:53;;;;;;;16.07;5.10;;;13.60;96.90;;;12.37;63.76;98540.63;10318467;28;96546;-79
2022/04/07 08:22:55;;;;;;;6.83;4.43;;;13.80;96.30;;;12.57;62.05;98531.38;10380021;28;97739;-79
2022/04/07 08:27:59;;;;;;;7.13;4.07;;;14.00;95.70;;;12.66;60.48;98529.25;10374340;28;96526;-78
2022/04/07 08:33:04;;;;;;;6.67;4.13;;;14.10;94.60;;;12.76;60.03;98531.38;10368921;28;96752;-79
2022/04/07 08:38:09;;;;;;;4.97;4.00;;;14.20;92.90;;;12.73;58.88;98531.84;10376596;28;96586;-78
2022/04/07 08:43:12;;;;;;;9.67;4.90;;;14.20;92.00;;;12.55;58.26;98536.13;10369011;28;97129;-78
2022/04/07 08:48:15;;;;;;;5.77;3.80;;;14.10;90.40;;;12.60;59.41;98532.81;10347730;28;96814;-78
2022/04/07 08:53:19;;;;;;;7.70;4.20;;;14.10;90.80;;;12.61;57.76;98536.28;10340675;28;96612;-79
2022/04/07 08:58:22;;;;;;;6.83;4.50;;;14.10;90.00;;;12.63;57.67;98531.53;10348239;28;98693;-78
2022/04/07 09:03:26;;;;;;;5.80;4.13;;;14.10;89.10;;;12.64;57.33;98515.31;10325895;28;96629;-80
2022/04/07 09:08:38;;;;;;;8.37;4.07;;;14.10;88.30;;;12.67;57.98;98516.75;10342154;28;96700;-78
2022/04/07 09:13:44;;;;;;;5.73;4.40;;;14.10;87.90;;;12.57;57.91;98507.41;10341352;28;96772;-80
2022/04/07 09:18:48;;;;;;;8.73;5.17;;;14.10;87.20;;;12.51;58.35;98510.94;10357917;28;96965;-80
2022/04/07 09:23:58;;;;;;;6.23;3.97;;;14.00;87.50;;;12.50;58.85;98492.53;10322123;28;96566;-80
2022/04/07 09:29:11;;;;;;;7.47;4.97;;;14.00;87.80;;;12.51;58.26;98496.81;10338362;28;97034;-79
2022/04/07 09:34:13;;;;;;;8.30;4.00;;;14.00;86.80;;;12.56;57.35;98495.13;10363929;28;96489;-79
2022/04/07 09:39:39;;;;;;;6.73;3.87;;;14.10;86.40;;;12.74;57.36;98488.97;10396546;28;96444;-79
2022/04/07 09:44:42;;;;;;;7.47;3.83;;;14.20;86.00;;;12.91;56.66;98478.50;10372381;28;96534;-79
2022/04/07 09:49:48;;;;;;;6.90;4.13;;;14.40;85.50;;;13.18;56.95;98478.16;10367503;28;96490;-79
2022/04/07 09:54:52;;;;;;;6.43;3.83;;;14.60;85.00;;;13.44;55.51;98469.81;10341609;28;96436;-79
2022/04/07 09:59:57;;;;;;;7.70;4.18;;;14.90;84.40;;;13.77;55.15;98479.16;10355892;28;96509;-79
2022/04/07 10:05:02;;;;;;;5.88;3.92;;;15.20;83.80;;;14.13;53.57;98475.44;10353619;28;98250;-79
2022/04/07 10:10:05;;;;;;;6.55;3.78;;;15.50;82.20;;;14.36;52.59;98470.09;10355500;28;96811;-78
2022/04/07 10:15:09;;;;;;;13.95;7.18;;;15.80;80.30;;;14.65;53.30;98476.34;10399262;28;96463;-78
2022/04/07 10:20:18;;;;;;;7.85;4.22;;;16.00;79.10;;;15.11;52.27;98444.34;10355660;28;96519;-79
2022/04/07 10:25:23;;;;;;;6.90;4.25;;;16.40;78.60;;;15.51;49.40;98452.28;10355825;28;96838;-79
2022/04/07 10:30:30;;;;;;;8.02;3.80;;;16.80;75.30;;;15.83;47.96;98438.34;10367675;28;96553;-79
2022/04/07 10:35:39;;;;;;;7.22;4.30;;;17.20;72.00;;;16.23;47.49;98441.63;10327989;28;96857;-79
2022/04/07 10:40:50;;;;;;;7.20;3.40;;;17.50;70.80;;;16.76;47.70;98434.81;10358674;28;96468;-79
2022/04/07 10:46:11;;;;;;;5.55;3.72;;;18.00;69.60;;;17.11;45.18;98415.63;10380665;28;96387;-78
2022/04/07 10:51:14;;;;;;;4.50;3.45;;;18.40;65.80;;;17.42;44.66;98415.09;10366448;28;96788;-79
2022/04/07 10:56:36;;;;;;;7.70;3.90;;;18.70;64.60;;;17.16;44.13;98396.06;10360102;28;96645;-78
2022/04/07 11:01:39;;;;;;;6.28;3.50;;;18.60;62.00;;;17.27;44.62;98384.38;10356350;28;96748;-76
2022/04/07 11:07:04;;;;;;;7.00;3.45;;;18.70;62.60;;;17.61;44.35;98392.13;10352406;28;96606;-78
2022/04/07 11:12:25;;;;;;;5.78;3.40;;;19.00;62.50;;;18.77;42.50;98374.22;10379856;28;96402;-79
2022/04/07 11:17:44;;;;;;;8.95;5.07;;;19.80;62.00;;;20.03;41.45;98367.25;10391079;28;96885;-79
2022/04/07 11:23:05;;;;;;;5.10;3.47;;;21.00;60.60;;;20.81;37.70;98356.72;10313036;28;96471;-79
2022/04/07 11:28:22;;;;;;;3.80;2.33;;;22.00;56.30;;;21.14;35.86;98345.41;10324633;28;96799;-79
2022/04/07 11:33:28;;;;;;;5.30;3.10;;;22.30;52.60;;;21.23;35.84;98341.84;10373070;28;96499;-79
2022/04/07 11:38:33;;;;;;;4.05;2.50;;;22.50;53.10;;;21.48;34.98;98342.75;10337320;28;96603;-79
2022/04/07 11:43:40;;;;;;;6.93;2.13;;;22.70;51.70;;;21.91;32.83;98336.34;10298626;28;96843;-80
2022/04/07 11:48:43;;;;;;;4.47;2.33;;;23.10;48.90;;;21.95;33.33;98331.19;10357350;28;98360;-79
2022/04/07 11:53:52;;;;;;;4.50;2.25;;;23.10;48.90;;;22.00;32.60;98312.19;10339547;28;96381;-79
2022/04/07 11:58:56;;;;;;;3.17;2.30;;;23.30;48.20;;;22.22;32.29;98310.88;10310665;28;96488;-79
2022/04/07 12:04:02;;;;;;;4.45;2.72;;;23.40;47.70;;;22.31;33.22;98301.00;10326979;28;96650;-79
2022/04/07 12:09:05;;;;;;;4.05;2.40;;;23.70;47.80;;;22.74;32.74;98298.28;10377648;28;96734;-79
2022/04/07 12:14:11;;;;;;;4.07;2.60;;;24.10;47.40;;;22.76;32.28;98290.66;10338201;28;96621;-79
2022/04/07 12:19:15;;;;;;;4.78;2.20;;;24.30;46.50;;;22.88;31.69;98291.03;10335974;28;96677;-79
2022/04/07 12:24:18;;;;;;;3.20;2.22;;;24.40;46.00;;;22.94;31.34;98281.75;10329925;28;96827;-79
2022/04/07 12:29:25;;;;;;;5.47;2.25;;;24.50;45.30;;;22.83;30.47;98285.69;10352146;28;98194;-79
2022/04/07 12:34:29;;;;;;;3.75;2.30;;;24.70;44.10;;;23.06;30.53;98273.97;10354854;28;96682;-79
2022/04/07 12:39:35;;;;;;;3.58;2.40;;;24.80;43.80;;;23.06;30.16;98279.38;10319527;28;97972;-79
2022/04/07 12:44:39;;;;;;;3.60;2.53;;;24.90;43.10;;;23.06;30.29;98273.16;10311706;28;96653;-79
2022/04/07 12:50:01;;;;;;;4.13;2.60;;;24.90;43.70;;;23.27;30.16;98263.59;10332603;28;96962;-79
2022/04/07 12:55:10;;;;;;;7.22;3.33;;;25.30;42.80;;;23.40;30.08;98251.16;10354015;28;96618;-79
2022/04/07 13:00:19;;;;;;;;;;;25.50;42.40;;;23.94;29.54;98236.84;10347868;28;96732;-79
2022/04/07 13:05:34;;;;;;;6.50;2.70;;;26.00;42.30;;;24.39;27.23;98244.34;10349880;28;98479;-79
2022/04/07 13:10:40;;;;;;;3.22;2.30;;;26.70;41.40;;;24.48;28.06;98237.09;10348419;28;96479;-79
2022/04/07 13:15:43;;;;;;;5.47;3.38;;;26.80;41.30;;;24.39;28.57;98230.75;10332762;28;96512;-79
2022/04/07 13:20:46;;;;;;;8.20;4.43;;;26.80;41.00;;;23.93;29.23;98239.84;10345552;28;96914;-79
2022/04/07 13:25:49;;;;;;;3.92;3.03;;;26.40;41.00;;;23.02;28.71;98232.31;10330366;28;96775;-79
2022/04/07 13:30:52;;;;;;;5.85;3.40;;;25.70;40.50;;;21.63;31.05;98237.19;10338961;28;96550;-78
2022/04/07 13:35:55;;;;;;;6.22;3.97;;;24.20;41.50;;;20.73;32.94;98233.13;10343998;28;96474;-78
2022/04/07 13:41:00;;;;;;;5.30;2.92;;;23.20;42.90;;;20.12;33.73;98230.00;10321306;28;96598;-79
2022/04/07 13:46:03;;;;;;;5.60;3.00;;;22.40;43.80;;;19.66;35.39;98216.69;10345243;28;96837;-79
2022/04/07 13:51:06;;;;;;;4.38;3.30;;;21.80;44.90;;;19.27;35.89;98220.03;10350922;28;97293;-79
2022/04/07 13:56:09;;;;;;;6.32;3.78;;;21.30;45.70;;;19.03;36.59;98210.91;10348562;28;96601;-79
2022/04/07 14:01:15;;;;;;;6.95;3.20;;;21.00;46.40;;;18.77;37.65;98196.63;10335860;28;96439;-79
2022/04/07 14:06:20;;;;;;;3.85;2.80;;;20.60;47.20;;;18.56;38.23;98201.19;10345183;28;96863;-79
2022/04/07 14:11:23;;;;;;;4.47;2.78;;;20.40;47.80;;;18.39;38.88;98183.41;10381763;28;96549;-78
2022/04/07 14:16:26;;;;;;;6.53;2.25;;;20.20;48.40;;;18.31;39.22;98177.78;10331011;28;96560;-79
2022/04/07 14:21:31;;;;;;;8.48;4.80;;;20.00;48.80;;;18.24;39.21;98164.59;10344030;28;96489;-79
2022/04/07 14:26:37;;;;;;;6.13;2.95;;;19.90;49.10;;;18.14;38.99;98161.88;10373425;28;96487;-80
2022/04/07 14:31:40;;;;;;;4.55;3.10;;;19.80;49.30;;;18.03;40.25;98166.44;10383770;28;96888;-79
2022/04/07 14:36:45;;;;;;;13.90;4.90;;;19.70;49.70;;;17.82;40.18;98156.72;10344227;28;96699;-79
2022/04/07 14:41:48;;;;;;;4.50;3.15;;;19.60;49.90;;;17.62;40.55;98155.53;10327696;28;96571;-79
2022/04/07 14:46:51;;;;;;;7.32;3.15;;;19.40;50.10;;;17.48;41.77;98146.34;10304097;28;96649;-79
2022/04/07 14:51:59;;;;;;;3.92;2.65;;;19.20;51.10;;;17.98;41.46;98127.97;10352669;28;96473;-79
2022/04/07 14:57:02;;;;;;;5.72;2.90;;;19.60;51.70;;;18.50;40.84;98126.97;10362727;28;96575;-78
2022/04/07 15:02:05;;;;;;;4.35;2.58;;;20.00;51.00;;;18.42;40.61;98133.69;10330735;28;96545;-79
2022/04/07 15:07:08;;;;;;;4.38;2.50;;;20.10;50.60;;;18.60;42.12;98108.13;10322376;28;96643;-79
2022/04/07 15:12:12;;;;;;;5.50;2.50;;;20.20;51.40;;;19.60;40.61;98131.59;10339775;28;96490;-79
2022/04/07 15:17:15;;;;;;;4.55;2.55;;;21.00;51.40;;;20.71;37.57;98137.34;10368228;28;96667;-78
2022/04/07 15:22:18;;;;;;;3.63;1.83;;;22.00;50.40;;;21.77;37.65;98134.56;10356946;28;97096;-79
2022/04/07 15:27:21;;;;;;;3.42;1.98;;;23.00;49.50;;;22.59;36.04;98121.44;10338436;28;96626;-79
2022/04/07 15:32:24;;;;;;;3.45;2.00;;;23.90;48.20;;;23.22;33.55;98120.88;10353334;28;96889;-78
2022/04/07 15:37:28;;;;;;;3.15;2.20;;;24.50;47.20;;;23.61;34.65;98116.81;10344918;28;96558;-78
2022/04/07 15:42:31;;;;;;;3.45;2.60;;;24.90;46.40;;;23.57;31.73;98110.44;10352032;28;96889;-79
2022/04/07 15:47:34;;;;;;;3.63;2.30;;;25.10;44.90;;;23.42;31.80;98122.38;10374082;28;96603;-79
2022/04/07 15:52:37;;;;;;;3.38;2.30;;;25.00;44.70;;;23.23;32.85;98116.25;10352234;28;96495;-81
2022/04/07 15:57:43;;;;;;;6.82;2.45;;;24.70;44.90;;;22.95;32.22;98121.66;10379562;28;96425;-80
2022/04/07 16:02:46;;;;;;;3.22;1.35;;;24.50;45.00;;;22.02;33.08;98118.00;10359371;28;96520;-80
2022/04/07 16:07:49;;;;;;;4.05;1.00;;;23.70;44.90;;;21.24;32.79;98116.56;10339002;28;98131;-79
2022/04/07 16:12:53;;;;;;;23.35;8.82;;;23.00;45.10;;;20.32;33.83;98111.19;10336403;28;96536;-80
2022/04/07 16:17:59;;;;;;;6.00;2.72;;;22.10;45.60;;;19.61;35.02;98104.41;10332128;28;96874;-80
2022/04/07 16:23:02;;;;;;;7.10;2.13;;;21.40;46.30;;;19.04;35.79;98102.97;10359581;28;96606;-80
2022/04/07 16:28:06;;;;;;;5.68;1.60;;;20.80;46.80;;;18.58;36.88;98104.88;10335582;28;96521;-79
2022/04/07 16:33:14;;;;;;;8.80;2.33;;;20.30;47.50;;;18.15;38.16;98098.97;10357146;28;96688;-79
2022/04/07 16:38:18;;;;;;;10.85;3.45;;;19.90;48.30;;;17.78;38.89;98108.06;10346937;28;96739;-81
2022/04/07 16:43:21;;;;;;;8.02;2.70;;;19.50;48.60;;;17.36;41.02;98106.28;10356853;28;97353;-79
2022/04/07 16:48:24;;;;;;;10.68;2.13;;;19.20;50.10;;;16.84;42.12;98115.16;10352786;28;96550;-79
2022/04/07 16:53:27;;;;;;;4.50;2.72;;;18.70;50.70;;;16.39;42.87;98112.13;10359328;28;96996;-79
2022/04/07 16:58:30;;;;;;;5.97;2.60;;;18.30;51.60;;;15.98;44.11;98115.25;10351328;28;96522;-78
2022/04/07 17:03:36;;;;;;;9.70;1.58;;;17.90;52.40;;;15.53;45.79;98126.25;10350785;28;96766;-79
2022/04/07 17:08:38;;;;;;;5.97;1.88;;;17.50;53.40;;;15.09;46.39;98134.28;10326896;28;96624;-79
2022/04/07 17:13:41;;;;;;;3.47;1.63;;;17.00;54.00;;;14.77;46.95;98130.63;10348268;28;96672;-79
2022/04/07 17:18:44;;;;;;;2.15;1.38;;;16.60;54.80;;;14.47;47.96;98139.78;10327433;28;96657;-79
2022/04/07 17:23:47;;;;;;;1.90;1.10;;;16.30;55.50;;;14.18;48.43;98145.16;10339859;28;96627;-79
2022/04/07 17:28:50;;;;;;;6.10;1.55;;;16.00;56.10;;;13.91;49.49;98147.63;10358897;28;96834;-79
2022/04/07 17:33:53;;;;;;;4.67;0.70;;;15.70;56.90;;;13.68;49.98;98145.03;10361517;28;96603;-79
2022/04/07 17:38:55;;;;;;;2.37;0.93;;;15.50;57.10;;;13.43;50.50;98147.19;10332878;28;97768;-78
2022/04/07 17:44:00;;;;;;;5.77;1.23;;;15.30;57.70;;;13.19;51.21;98160.53;10354632;28;96477;-80
2022/04/07 17:49:03;;;;;;;1.90;0.80;;;15.00;58.30;;;12.95;51.87;98159.75;10358482;28;96412;-80
2022/04/07 17:54:06;;;;;;;3.33;0.93;;;14.80;59.10;;;12.74;52.56;98163.81;10355693;28;96469;-80
2022/04/07 17:59:09;;;;;;;6.47;2.73;;;14.60;59.50;;;12.53;53.18;98170.53;10357995;28;96389;-80
2022/04/07 18:04:12;;;;;;;12.90;3.67;;;14.40;59.90;;;12.35;53.77;98170.59;10352512;28;96678;-80
2022/04/07 18:09:15;;;;;;;26.57;6.23;;;14.20;60.70;;;12.18;55.14;98185.63;10366473;28;96642;-80
2022/04/07 18:14:18;;;;;;;26.23;9.70;;;14.00;61.20;;;12.00;55.46;98200.59;10381241;28;96398;-79
2022/04/07 18:19:22;;;;;;;16.77;7.40;;;13.80;61.90;;;11.81;56.35;98212.31;10345382;28;96523;-79
2022/04/07 18:24:24;;;;;;;23.53;8.33;;;13.70;62.60;;;11.62;57.26;98208.81;10361832;28;96600;-80
2022/04/07 18:29:27;;;;;;;19.17;8.63;;;13.50;63.60;;;11.46;57.90;98226.19;10365559;28;96612;-79
2022/04/07 18:34:30;;;;;;;18.17;9.63;;;13.30;63.80;;;11.31;58.61;98240.88;10358829;28;96794;-80
2022/04/07 18:39:37;;;;;;;19.33;9.30;;;13.10;65.00;;;11.16;59.40;98236.75;10313240;28;98251;-78
2022/04/07 18:44:40;;;;;;;21.27;9.77;;;13.00;65.70;;;11.06;60.11;98227.63;10336107;28;96631;-80
2022/04/07 18:49:43;;;;;;;151.17;32.47;;;12.90;66.50;;;10.97;61.06;98224.44;10325322;28;96946;-80
2022/04/07 18:54:46;;;;;;;33.57;13.13;;;12.80;67.80;;;10.85;61.54;98234.13;10338235;28;97432;-79
2022/04/07 18:59:49;;;;;;;28.13;11.20;;;12.70;68.70;;;10.79;62.75;98250.94;10354372;28;96449;-80
2022/04/07 19:04:52;;;;;;;19.90;10.13;;;12.60;69.30;;;10.77;63.86;98261.00;10357165;28;96599;-79
2022/04/07 19:09:56;;;;;;;14.60;7.40;;;12.50;72.20;;;10.81;64.79;98249.72;10335382;28;96985;-80
2022/04/07 19:14:59;;;;;;;23.13;9.10;;;12.50;72.70;;;10.85;65.12;98250.91;10378576;28;96706;-80
2022/04/07 19:20:04;;;;;;;11.73;6.97;;;12.50;74.30;;;10.85;65.14;98250.09;10339388;28;96563;-81
2022/04/07 19:25:08;;;;;;;40.33;13.23;;;12.50;75.60;;;10.82;65.55;98246.03;10357412;28;96472;-80
2022/04/07 19:30:14;;;;;;;145.33;32.17;;;12.50;76.70;;;10.78;65.98;98259.94;10359860;28;96683;-80
2022/04/07 19:35:17;;;;;;;88.43;21.97;;;12.50;78.50;;;10.70;65.98;98269.00;10340694;28;96688;-80
2022/04/07 19:40:20;;;;;;;22.97;10.43;;;12.40;80.00;;;10.61;66.49;98268.44;10352797;28;96489;-80
2022/04/07 19:45:23;;;;;;;26.50;10.93;;;12.30;81.50;;;10.48;66.67;98259.75;10336411;28;96549;-79
2022/04/07 19:50:26;;;;;;;18.20;8.23;;;12.30;81.90;;;10.31;67.53;98248.81;10337591;28;96500;-79
2022/04/07 19:55:29;;;;;;;26.43;13.10;;;12.10;82.40;;;10.17;67.67;98232.16;10303935;28;96599;-79
2022/04/07 20:00:32;;;;;;;152.03;34.50;;;12.00;83.70;;;9.99;68.32;98221.41;10344831;28;96910;-79
2022/04/07 20:05:35;;;;;;;27.77;12.50;;;11.90;87.20;;;9.89;69.31;98235.94;10324780;28;96425;-80
2022/04/07 20:10:38;;;;;;;28.93;11.50;;;11.70;90.40;;;9.89;70.01;98222.69;10315851;28;96796;-80
2022/04/07 20:15:41;;;;;;;60.27;17.23;;;11.70;91.70;;;9.95;70.38;98238.78;10297069;28;97129;-80
2022/04/07 20:20:45;;;;;;;26.47;11.97;;;11.70;93.20;;;10.05;70.82;98236.50;10361543;28;96609;-80
2022/04/07 20:25:48;;;;;;;42.17;12.97;;;11.70;93.70;;;10.17;71.10;98224.19;10328822;28;96402;-78
2022/04/07 20:30:51;;;;;;;24.67;11.83;;;11.80;94.00;;;10.25;70.61;98237.22;10330224;28;97035;-79
2022/04/07 20:35:55;;;;;;;34.87;13.50;;;11.80;94.50;;;10.36;70.06;98233.88;10317818;28;96529;-80
2022/04/07 20:40:58;;;;;;;26.20;11.30;;;11.90;94.40;;;10.42;70.29;98224.25;10356755;28;98526;-80
2022/04/07 20:46:01;;;;;;;13.77;9.47;;;12.00;95.00;;;10.45;70.70;98197.28;10339224;28;97040;-80
2022/04/07 20:51:04;;;;;;;42.33;12.93;;;12.10;95.20;;;10.47;70.70;98186.44;10336019;28;96594;-80
2022/04/07 20:56:07;;;;;;;124.70;29.57;;;12.10;95.10;;;10.43;70.31;98200.16;10338978;28;96500;-80
2022/04/07 21:01:10;;;;;;;46.03;15.70;;;12.10;95.40;;;10.38;70.71;98207.16;10325653;28;96446;-80
2022/04/07 21:06:14;;;;;;;21.27;11.47;;;12.10;95.50;;;10.31;70.45;98220.44;10344579;28;96745;-80